Time;durP1;ratioP1;P1;durP2;ratioP2;P2;SDS_P1;SDS_P2;PMS_P1;PMS_P2;Temp;Humidity;BMP_temperature;BMP_pressure;BME280_temperature;BME280_humidity;BME280_pressure;Samples;Min_cycle;Max_cycle;Signal;HPM_P1;HPM_P2
2024/02/13 00:00:58;;;;;;;4.00;1.45;;;4.40;99.90;;;;;;5017869;28;20059;-72
2024/02/13 00:03:24;;;;;;;4.50;2.05;;;4.30;99.90;;;;;;5034042;28;20064;-74
2024/02/13 00:05:51;;;;;;;9.38;2.72;;;4.30;99.90;;;;;;5057586;28;20490;-72
2024/02/13 00:08:17;;;;;;;6.53;1.85;;;4.40;99.90;;;;;;5049041;28;20115;-71
2024/02/13 00:10:43;;;;;;;7.75;1.65;;;4.40;99.90;;;;;;5049260;28;20576;-69
2024/02/13 00:13:08;;;;;;;10.23;2.60;;;4.40;99.90;;;;;;5042697;28;20090;-72
2024/02/13 00:15:37;;;;;;;9.15;2.22;;;4.30;99.90;;;;;;5051086;28;20035;-73
2024/02/13 00:18:03;;;;;;;8.05;2.45;;;4.30;99.90;;;;;;5048996;28;20706;-72
2024/02/13 00:20:29;;;;;;;9.57;3.13;;;4.30;99.90;;;;;;5051169;28;20580;-73
2024/02/13 00:22:55;;;;;;;6.82;2.67;;;4.30;99.90;;;;;;5066974;28;20027;-71
2024/02/13 00:25:21;;;;;;;6.20;2.58;;;4.30;99.90;;;;;;5044364;28;20032;-72
2024/02/13 00:27:46;;;;;;;8.98;2.63;;;4.30;99.90;;;;;;5042940;28;20543;-72
2024/02/13 00:30:14;;;;;;;6.47;3.28;;;4.20;99.90;;;;;;5066869;28;20037;-72
2024/02/13 00:32:40;;;;;;;7.60;2.75;;;4.20;99.90;;;;;;5060768;28;20101;-73
2024/02/13 00:35:06;;;;;;;8.18;3.78;;;4.20;99.90;;;;;;5047076;28;20470;-72
2024/02/13 00:37:32;;;;;;;6.47;3.00;;;4.30;99.90;;;;;;5043410;28;20158;-73
2024/02/13 00:39:58;;;;;;;12.93;4.05;;;4.20;99.90;;;;;;5063190;28;20035;-71
2024/02/13 00:42:26;;;;;;;7.05;3.42;;;4.20;99.90;;;;;;5050524;28;20086;-73
2024/02/13 00:44:51;;;;;;;10.05;4.50;;;4.20;99.90;;;;;;5063678;28;20374;-71
2024/02/13 00:47:17;;;;;;;13.20;4.88;;;4.20;99.90;;;;;;5042256;28;20519;-71
2024/02/13 00:49:43;;;;;;;13.82;3.88;;;4.20;99.90;;;;;;5063743;28;20039;-72
2024/02/13 00:52:09;;;;;;;16.48;3.95;;;4.20;99.90;;;;;;5068096;28;20039;-72
2024/02/13 00:54:35;;;;;;;11.10;3.92;;;4.20;99.90;;;;;;5065982;28;20540;-72
2024/02/13 00:57:01;;;;;;;12.60;5.05;;;4.20;99.90;;;;;;5041590;28;20500;-72
2024/02/13 00:59:27;;;;;;;10.70;5.18;;;4.20;99.90;;;;;;5042253;28;20028;-72
2024/02/13 01:01:52;;;;;;;11.73;5.13;;;4.20;99.90;;;;;;5058774;28;20433;-71
2024/02/13 01:04:18;;;;;;;11.65;4.95;;;4.20;99.90;;;;;;5068593;28;20028;-70
2024/02/13 01:06:44;;;;;;;9.52;4.85;;;4.20;99.90;;;;;;5065900;28;20036;-71
2024/02/13 01:09:10;;;;;;;11.15;4.30;;;4.20;99.90;;;;;;5046331;28;20040;-72
2024/02/13 01:11:35;;;;;;;11.75;4.53;;;4.20;99.90;;;;;;5050394;28;20424;-72
2024/02/13 01:14:04;;;;;;;10.52;5.03;;;4.20;99.90;;;;;;5067409;28;20029;-72
2024/02/13 01:16:30;;;;;;;8.43;4.90;;;4.20;99.90;;;;;;5067731;28;20044;-72
2024/02/13 01:18:56;;;;;;;12.88;4.72;;;4.10;99.90;;;;;;5061867;28;20058;-73
2024/02/13 01:21:22;;;;;;;10.10;4.50;;;4.20;99.90;;;;;;5044008;28;20053;-72
2024/02/13 01:23:49;;;;;;;14.63;4.85;;;4.20;99.90;;;;;;5047351;28;20035;-75
2024/02/13 01:26:18;;;;;;;9.05;4.72;;;4.20;99.90;;;;;;5048256;28;20036;-73
2024/02/13 01:28:44;;;;;;;19.70;5.13;;;4.20;99.90;;;;;;5065531;28;20036;-72
2024/02/13 01:31:10;;;;;;;16.30;4.88;;;4.20;99.90;;;;;;5048337;28;20090;-76
2024/02/13 01:33:36;;;;;;;9.63;5.28;;;4.20;99.90;;;;;;5062704;28;20032;-72
2024/02/13 01:36:04;;;;;;;18.08;5.70;;;4.20;99.90;;;;;;5060432;28;20679;-71
2024/02/13 01:38:30;;;;;;;8.55;4.47;;;4.10;99.90;;;;;;5061743;28;20028;-72
2024/02/13 01:40:56;;;;;;;13.45;4.80;;;4.20;99.90;;;;;;5062233;28;20037;-72
2024/02/13 01:43:24;;;;;;;18.27;5.05;;;4.20;99.90;;;;;;5066245;28;20036;-72
2024/02/13 01:45:55;;;;;;;21.17;4.85;;;4.20;99.90;;;;;;5062632;28;20047;-72
2024/02/13 01:48:21;;;;;;;;;;;4.20;99.90;;;;;;5066025;28;20656;-72
2024/02/13 01:50:48;;;;;;;14.00;4.55;;;4.20;99.90;;;;;;5069744;28;19970;-71
2024/02/13 01:53:15;;;;;;;10.82;4.82;;;4.20;99.90;;;;;;5060509;28;20120;-72
2024/02/13 01:55:41;;;;;;;11.40;5.00;;;4.20;99.90;;;;;;5046795;28;20060;-72
2024/02/13 01:58:08;;;;;;;14.52;5.63;;;4.20;99.90;;;;;;5062977;28;20074;-74
2024/02/13 02:00:34;;;;;;;8.05;4.32;;;4.20;99.90;;;;;;5062304;28;20029;-72
2024/02/13 02:03:00;;;;;;;10.23;4.80;;;4.20;99.90;;;;;;5059477;28;20039;-73
2024/02/13 02:05:26;;;;;;;9.23;5.03;;;4.20;99.90;;;;;;5063681;28;20035;-73
2024/02/13 02:07:53;;;;;;;16.52;5.35;;;4.20;99.90;;;;;;5047686;28;20037;-72
2024/02/13 02:10:19;;;;;;;15.23;5.32;;;4.20;99.90;;;;;;5044294;28;20025;-71
2024/02/13 02:12:49;;;;;;;15.55;4.13;;;4.20;99.90;;;;;;5046208;28;20489;-73
2024/02/13 02:15:16;;;;;;;11.60;5.60;;;4.20;99.90;;;;;;5063309;28;20039;-73
2024/02/13 02:17:52;;;;;;;13.45;5.47;;;4.20;99.90;;;;;;5046491;28;20035;-72
2024/02/13 02:20:19;;;;;;;14.70;5.63;;;4.10;99.90;;;;;;5057956;28;20025;-71
2024/02/13 02:22:47;;;;;;;12.55;4.65;;;4.20;99.90;;;;;;5064057;28;20495;-71
2024/02/13 02:25:13;;;;;;;10.93;4.93;;;4.10;99.90;;;;;;5061608;28;20094;-72
2024/02/13 02:27:39;;;;;;;12.35;4.95;;;4.20;99.90;;;;;;5065202;28;20036;-73
2024/02/13 02:30:06;;;;;;;9.52;5.38;;;4.20;99.90;;;;;;5047335;28;20189;-71
2024/02/13 02:32:32;;;;;;;15.60;5.65;;;4.20;99.90;;;;;;5070086;28;20032;-72
2024/02/13 02:34:59;;;;;;;9.68;4.80;;;4.20;99.90;;;;;;5052765;28;20028;-72
2024/02/13 02:37:24;;;;;;;11.27;5.25;;;4.20;99.90;;;;;;5071015;28;20408;-73
2024/02/13 02:39:50;;;;;;;12.15;5.13;;;4.30;99.90;;;;;;5043722;28;20037;-73
2024/02/13 02:42:16;;;;;;;16.27;6.10;;;4.20;99.90;;;;;;5068886;28;20031;-73
2024/02/13 02:44:43;;;;;;;14.93;5.00;;;4.20;99.90;;;;;;5062398;28;20024;-71
2024/02/13 02:47:12;;;;;;;11.73;5.43;;;4.20;99.90;;;;;;5067708;28;20039;-72
2024/02/13 02:49:37;;;;;;;12.15;5.13;;;4.20;99.90;;;;;;5064455;28;20070;-72
2024/02/13 02:52:07;;;;;;;10.20;5.25;;;4.20;99.90;;;;;;5063436;28;20082;-72
2024/02/13 02:54:36;;;;;;;20.02;5.47;;;4.30;99.90;;;;;;5064672;28;20056;-71
2024/02/13 02:57:04;;;;;;;13.35;5.70;;;4.30;99.90;;;;;;5047574;28;20032;-71
2024/02/13 02:59:30;;;;;;;10.85;5.38;;;4.30;99.90;;;;;;5070205;28;20101;-72
2024/02/13 03:01:55;;;;;;;11.60;5.40;;;4.30;99.90;;;;;;5052509;28;20029;-71
2024/02/13 03:04:21;;;;;;;11.02;5.22;;;4.30;99.90;;;;;;5052007;28;20082;-72
2024/02/13 03:06:47;;;;;;;13.82;5.43;;;4.30;99.90;;;;;;5051425;28;20049;-70
2024/02/13 03:09:12;;;;;;;11.10;5.45;;;4.30;99.90;;;;;;5047405;28;20067;-72
2024/02/13 03:11:38;;;;;;;13.32;5.70;;;4.30;99.90;;;;;;5048612;28;20119;-72
2024/02/13 03:14:04;;;;;;;11.50;5.78;;;4.30;99.90;;;;;;5059942;28;20063;-72
2024/02/13 03:16:30;;;;;;;12.80;5.30;;;4.30;99.90;;;;;;5067754;28;20139;-73
2024/02/13 03:18:56;;;;;;;13.38;5.78;;;4.30;99.90;;;;;;5065062;28;20024;-72
2024/02/13 03:21:22;;;;;;;11.90;5.82;;;4.30;99.90;;;;;;5050177;28;20041;-71
2024/02/13 03:23:48;;;;;;;19.83;5.65;;;4.30;99.90;;;;;;5047760;28;20143;-71
2024/02/13 03:26:13;;;;;;;18.88;5.55;;;4.20;99.90;;;;;;5067390;28;20040;-71
2024/02/13 03:28:39;;;;;;;9.48;4.75;;;4.20;99.90;;;;;;5063520;28;20052;-72
2024/02/13 03:31:05;;;;;;;13.45;5.88;;;4.20;99.90;;;;;;5042556;28;20033;-72
2024/02/13 03:33:30;;;;;;;19.05;7.18;;;4.20;99.90;;;;;;5065117;28;20028;-71
2024/02/13 03:35:56;;;;;;;14.07;6.15;;;4.20;99.90;;;;;;5064968;28;20055;-72
2024/02/13 03:38:22;;;;;;;13.30;6.50;;;4.20;99.90;;;;;;5066275;28;20493;-75
2024/02/13 03:40:47;;;;;;;11.63;5.00;;;4.20;99.90;;;;;;5046598;28;20071;-73
2024/02/13 03:43:13;;;;;;;13.98;5.95;;;4.20;99.90;;;;;;5069268;28;20390;-72
2024/02/13 03:45:38;;;;;;;12.40;5.38;;;4.20;99.90;;;;;;5051000;28;20037;-71
2024/02/13 03:48:04;;;;;;;12.48;5.18;;;4.10;99.90;;;;;;5066001;28;20119;-72
2024/02/13 03:50:30;;;;;;;12.55;4.88;;;4.10;99.90;;;;;;5045170;28;20043;-71
2024/02/13 03:52:56;;;;;;;13.70;6.07;;;4.10;99.90;;;;;;5042471;28;20048;-73
2024/02/13 03:55:21;;;;;;;12.57;5.30;;;4.10;99.90;;;;;;5047688;28;20044;-72
2024/02/13 03:57:47;;;;;;;15.02;5.85;;;4.10;99.90;;;;;;5067604;28;20024;-72
2024/02/13 04:00:13;;;;;;;10.57;5.80;;;4.10;99.90;;;;;;5045589;28;20051;-72
2024/02/13 04:02:39;;;;;;;9.30;5.35;;;4.10;99.90;;;;;;5043345;28;20048;-73
2024/02/13 04:05:05;;;;;;;16.40;5.68;;;4.10;99.90;;;;;;5067000;28;20517;-72
2024/02/13 04:07:31;;;;;;;11.65;5.68;;;4.10;99.90;;;;;;5067899;28;20044;-73
2024/02/13 04:09:56;;;;;;;8.50;4.70;;;4.10;99.90;;;;;;5040092;28;20036;-71
2024/02/13 04:12:22;;;;;;;23.83;7.72;;;4.10;99.90;;;;;;5057791;28;20039;-69
2024/02/13 04:14:49;;;;;;;9.63;4.90;;;4.10;99.90;;;;;;5058734;28;20039;-71
2024/02/13 04:17:16;;;;;;;10.35;4.97;;;4.10;99.90;;;;;;5040817;28;20067;-72
2024/02/13 04:19:41;;;;;;;12.73;5.05;;;4.00;99.90;;;;;;5058336;28;20052;-72
2024/02/13 04:22:07;;;;;;;9.57;4.63;;;4.10;99.90;;;;;;5059528;28;20499;-72
2024/02/13 04:24:33;;;;;;;10.65;4.97;;;4.10;99.90;;;;;;5059394;28;20035;-71
2024/02/13 04:26:58;;;;;;;8.63;4.85;;;4.00;99.90;;;;;;5041997;28;20412;-72
2024/02/13 04:29:24;;;;;;;13.55;4.97;;;4.00;99.90;;;;;;5068429;28;20041;-72
2024/02/13 04:31:49;;;;;;;10.45;4.95;;;4.00;99.90;;;;;;5066018;28;20039;-73
2024/02/13 04:34:15;;;;;;;11.30;4.38;;;4.00;99.90;;;;;;5050601;28;20060;-72
2024/02/13 04:36:41;;;;;;;11.27;4.32;;;4.00;99.90;;;;;;5048978;28;20529;-72
2024/02/13 04:39:06;;;;;;;10.55;5.22;;;4.00;99.90;;;;;;5068148;28;20044;-72
2024/02/13 04:41:33;;;;;;;11.90;4.45;;;4.00;99.90;;;;;;5066509;28;20523;-72
2024/02/13 04:43:58;;;;;;;14.32;4.53;;;4.00;99.90;;;;;;5050017;28;20064;-72
2024/02/13 04:46:24;;;;;;;8.90;4.38;;;4.00;99.90;;;;;;5048193;28;20079;-72
2024/02/13 04:48:53;;;;;;;10.40;5.22;;;4.00;99.90;;;;;;5066844;28;20380;-73
2024/02/13 04:51:19;;;;;;;9.13;5.18;;;4.00;99.90;;;;;;5069599;28;20607;-72
2024/02/13 04:53:45;;;;;;;12.43;5.25;;;4.00;99.90;;;;;;5072330;28;20083;-71
2024/02/13 04:56:11;;;;;;;10.90;4.70;;;4.00;99.90;;;;;;5067645;28;20044;-72
2024/02/13 04:58:36;;;;;;;12.48;4.45;;;4.00;99.90;;;;;;5047430;28;20036;-72
2024/02/13 05:01:05;;;;;;;8.55;4.90;;;4.10;99.90;;;;;;5065192;28;20494;-71
2024/02/13 05:09:08;;;;;;;8.93;4.60;;;4.10;99.90;;;;;;5050267;28;20093;-71
2024/02/13 05:11:33;;;;;;;11.73;4.57;;;4.10;99.90;;;;;;5064225;28;20463;-71
2024/02/13 05:14:02;;;;;;;15.88;4.75;;;4.10;99.90;;;;;;5037719;28;20055;-71
2024/02/13 05:16:29;;;;;;;9.02;3.90;;;4.10;99.90;;;;;;5033254;28;20113;-72
2024/02/13 05:18:55;;;;;;;12.95;5.25;;;4.10;99.90;;;;;;5042789;28;20379;-72
2024/02/13 05:21:21;;;;;;;12.48;5.35;;;4.00;99.90;;;;;;5026626;28;20040;-72
2024/02/13 05:23:50;;;;;;;11.77;4.57;;;4.10;99.90;;;;;;5048377;28;20059;-72
2024/02/13 05:26:20;;;;;;;14.70;6.50;;;4.00;99.90;;;;;;5061342;28;20060;-71
2024/02/13 05:28:46;;;;;;;13.63;5.17;;;4.00;99.90;;;;;;5054433;28;20134;-71
2024/02/13 05:31:12;;;;;;;18.67;5.47;;;3.90;99.90;;;;;;5056732;28;20051;-72
2024/02/13 05:33:39;;;;;;;9.98;4.85;;;4.00;99.90;;;;;;5047817;28;20037;-71
2024/02/13 05:36:05;;;;;;;16.67;5.97;;;4.00;99.90;;;;;;5052590;28;20064;-72
2024/02/13 05:38:42;;;;;;;12.18;6.03;;;4.00;99.90;;;;;;5047022;28;20520;-72
2024/02/13 05:41:08;;;;;;;10.00;5.55;;;4.00;99.90;;;;;;5065970;28;20082;-71
2024/02/13 05:43:33;;;;;;;19.35;5.72;;;4.00;99.90;;;;;;5064132;28;20032;-72
2024/02/13 05:45:59;;;;;;;12.90;6.22;;;4.00;99.90;;;;;;5045607;28;20382;-72
2024/02/13 05:48:24;;;;;;;12.98;5.38;;;4.00;99.90;;;;;;5065218;28;20562;-70
2024/02/13 05:50:54;;;;;;;15.68;5.53;;;4.00;99.90;;;;;;5061520;28;20091;-73
2024/02/13 05:53:21;;;;;;;11.45;4.82;;;4.00;99.90;;;;;;5062341;28;20064;-72
2024/02/13 05:55:48;;;;;;;11.93;5.57;;;4.00;99.90;;;;;;5058730;28;20036;-72
2024/02/13 05:58:13;;;;;;;13.35;5.40;;;4.00;99.90;;;;;;5061803;28;20032;-73
2024/02/13 06:00:40;;;;;;;15.50;4.78;;;4.10;99.90;;;;;;5045238;28;21159;-72
2024/02/13 06:03:06;;;;;;;14.77;5.75;;;4.10;99.90;;;;;;5039426;28;20116;-72
2024/02/13 06:05:32;;;;;;;20.70;7.53;;;4.10;99.90;;;;;;5067407;28;20416;-72
2024/02/13 06:07:57;;;;;;;14.98;5.40;;;4.10;99.90;;;;;;5070282;28;20040;-69
2024/02/13 06:10:24;;;;;;;15.93;5.43;;;4.00;99.90;;;;;;5079883;28;20059;-69
2024/02/13 06:12:50;;;;;;;15.13;6.40;;;4.10;99.90;;;;;;5064591;28;20067;-72
2024/02/13 06:15:16;;;;;;;14.30;5.78;;;4.10;99.90;;;;;;5060771;28;20453;-72
2024/02/13 06:17:43;;;;;;;17.05;5.40;;;4.10;99.90;;;;;;5072537;28;20029;-72
2024/02/13 06:20:11;;;;;;;17.00;5.80;;;4.00;99.90;;;;;;5043427;28;20056;-73
2024/02/13 06:22:38;;;;;;;14.85;5.18;;;4.10;99.90;;;;;;5067868;28;20057;-73
2024/02/13 06:25:05;;;;;;;16.13;5.32;;;4.10;99.90;;;;;;5056221;28;20032;-71
2024/02/13 06:27:34;;;;;;;12.25;4.60;;;4.00;99.90;;;;;;5070352;28;20046;-72
2024/02/13 06:30:01;;;;;;;16.63;6.00;;;4.10;99.90;;;;;;5067569;28;20431;-74
2024/02/13 06:32:27;;;;;;;22.67;5.95;;;4.10;99.90;;;;;;5059940;28;20041;-71
2024/02/13 06:34:53;;;;;;;16.02;5.25;;;4.10;99.90;;;;;;5066850;28;20276;-71
2024/02/13 06:37:19;;;;;;;17.65;5.40;;;4.00;99.90;;;;;;5050968;28;20060;-71
2024/02/13 06:39:45;;;;;;;12.52;4.75;;;4.00;99.90;;;;;;5061942;28;20413;-73
2024/02/13 06:42:11;;;;;;;12.63;5.60;;;4.10;99.90;;;;;;5049687;28;20045;-72
2024/02/13 06:44:37;;;;;;;17.98;5.97;;;4.00;99.90;;;;;;5062609;28;20059;-73
2024/02/13 06:47:06;;;;;;;14.35;5.20;;;4.00;99.90;;;;;;5060393;28;20063;-71
2024/02/13 06:49:32;;;;;;;14.77;4.95;;;4.00;99.90;;;;;;5060067;28;20408;-70
2024/02/13 06:51:58;;;;;;;14.95;5.78;;;4.00;99.90;;;;;;5061881;28;20036;-74
2024/02/13 06:54:24;;;;;;;11.80;4.70;;;4.00;99.90;;;;;;5062555;28;20051;-69
2024/02/13 06:56:50;;;;;;;15.77;5.30;;;3.90;99.90;;;;;;5060658;28;20048;-71
2024/02/13 06:59:16;;;;;;;9.52;4.43;;;3.90;99.90;;;;;;5060456;28;20036;-72
2024/02/13 07:01:42;;;;;;;17.23;5.40;;;3.90;99.90;;;;;;5048276;28;20041;-72
2024/02/13 07:04:07;;;;;;;16.20;5.18;;;3.90;99.90;;;;;;5061560;28;20041;-71
2024/02/13 07:06:33;;;;;;;13.05;5.13;;;3.90;99.90;;;;;;5071189;28;20037;-73
2024/02/13 07:08:58;;;;;;;15.10;4.40;;;3.90;99.90;;;;;;5049377;28;20052;-71
2024/02/13 07:11:24;;;;;;;10.77;5.03;;;3.90;99.90;;;;;;5075993;28;20067;-71
2024/02/13 07:13:50;;;;;;;17.05;5.25;;;3.90;99.90;;;;;;5069478;28;20038;-72
2024/02/13 07:16:15;;;;;;;11.93;4.35;;;3.90;99.90;;;;;;5065274;28;20503;-73
2024/02/13 07:18:42;;;;;;;13.68;4.68;;;3.90;99.90;;;;;;5064690;28;20719;-73
2024/02/13 07:21:08;;;;;;;9.35;3.85;;;4.00;99.90;;;;;;5048115;28;20037;-72
2024/02/13 07:23:34;;;;;;;13.02;4.82;;;3.90;99.90;;;;;;5063783;28;20120;-73
2024/02/13 07:26:02;;;;;;;10.60;4.22;;;4.00;99.90;;;;;;5068327;28;20119;-74
2024/02/13 07:28:28;;;;;;;7.25;3.95;;;4.00;99.90;;;;;;5069008;28;20035;-68
2024/02/13 07:30:54;;;;;;;9.57;4.10;;;4.00;99.90;;;;;;5064128;28;20107;-71
2024/02/13 07:33:20;;;;;;;8.45;3.60;;;4.00;99.90;;;;;;5071045;28;20036;-71
2024/02/13 07:35:46;;;;;;;8.63;4.13;;;4.10;99.90;;;;;;5065004;28;20058;-73
2024/02/13 07:38:11;;;;;;;9.63;3.90;;;4.10;99.90;;;;;;5058833;28;20044;-72
2024/02/13 07:40:37;;;;;;;12.93;4.55;;;4.10;99.90;;;;;;5064008;28;20162;-72
2024/02/13 07:43:03;;;;;;;10.55;3.88;;;4.10;99.90;;;;;;5060657;28;20088;-71
2024/02/13 07:45:28;;;;;;;15.43;4.30;;;4.10;99.90;;;;;;5052011;28;20109;-71
2024/02/13 07:47:54;;;;;;;11.48;3.28;;;4.20;99.90;;;;;;5048930;28;20037;-72
2024/02/13 07:50:21;;;;;;;9.35;3.70;;;4.20;99.90;;;;;;5055305;28;20113;-73
2024/02/13 07:52:47;;;;;;;11.73;3.85;;;4.20;99.90;;;;;;5064346;28;20292;-73
2024/02/13 07:55:13;;;;;;;11.35;3.97;;;4.20;99.90;;;;;;5075407;28;20028;-72
2024/02/13 07:57:39;;;;;;;8.27;3.60;;;4.20;99.90;;;;;;5063520;28;20429;-72
2024/02/13 08:00:06;;;;;;;10.55;3.65;;;4.20;99.90;;;;;;5063981;28;20059;-71
2024/02/13 08:02:32;;;;;;;9.30;3.53;;;4.30;99.90;;;;;;5049276;28;20495;-72
2024/02/13 08:04:57;;;;;;;8.48;3.65;;;4.30;99.90;;;;;;5044483;28;20036;-74
2024/02/13 08:07:27;;;;;;;10.88;3.83;;;4.30;99.90;;;;;;5047232;28;20040;-71
2024/02/13 08:09:54;;;;;;;15.13;4.28;;;4.40;99.90;;;;;;5064159;28;20033;-72
2024/02/13 08:12:20;;;;;;;10.10;3.60;;;4.40;99.90;;;;;;5046013;28;20053;-71
2024/02/13 08:14:45;;;;;;;9.52;3.22;;;4.50;99.90;;;;;;5062104;28;20025;-72
2024/02/13 08:17:12;;;;;;;20.10;4.32;;;4.50;99.90;;;;;;5047491;28;20139;-72
2024/02/13 08:19:40;;;;;;;7.95;3.13;;;4.50;99.90;;;;;;5065800;28;20119;-70
2024/02/13 08:22:07;;;;;;;10.35;3.85;;;4.60;99.90;;;;;;5043318;28;20492;-73
2024/02/13 08:24:33;;;;;;;7.43;2.75;;;4.70;99.90;;;;;;5063626;28;20036;-69
2024/02/13 08:26:59;;;;;;;15.88;2.80;;;4.70;99.90;;;;;;5067529;28;20036;-70
2024/02/13 08:29:24;;;;;;;9.07;3.13;;;4.80;99.90;;;;;;5061201;28;20060;-72
2024/02/13 08:31:50;;;;;;;9.82;3.35;;;4.80;99.90;;;;;;5068097;28;20029;-72
2024/02/13 08:34:19;;;;;;;14.13;2.58;;;4.90;99.90;;;;;;5068466;28;20124;-72
2024/02/13 08:36:46;;;;;;;10.18;3.55;;;4.90;99.90;;;;;;5046502;28;20057;-72
2024/02/13 08:39:11;;;;;;;8.32;2.80;;;5.00;99.90;;;;;;5046792;28;20044;-73
2024/02/13 08:41:37;;;;;;;11.73;3.10;;;5.00;99.90;;;;;;5046270;28;20056;-71
2024/02/13 08:44:03;;;;;;;8.75;2.55;;;5.10;99.90;;;;;;5066352;28;20040;-72
2024/02/13 08:46:29;;;;;;;8.90;2.22;;;5.20;99.90;;;;;;5046409;28;20417;-71
2024/02/13 08:48:55;;;;;;;11.40;2.92;;;5.20;99.90;;;;;;5061075;28;20698;-71
2024/02/13 08:51:28;;;;;;;16.73;3.40;;;5.30;99.90;;;;;;5044516;28;20043;-71
2024/02/13 08:53:53;;;;;;;7.60;2.60;;;5.40;99.90;;;;;;5059532;28;20523;-72
2024/02/13 08:56:19;;;;;;;3.70;1.90;;;5.40;99.90;;;;;;5062683;28;20044;-71
2024/02/13 08:58:45;;;;;;;9.65;3.55;;;5.40;99.90;;;;;;5064373;28;20040;-73
2024/02/13 09:01:12;;;;;;;7.97;2.00;;;5.50;99.90;;;;;;5063073;28;20044;-72
2024/02/13 09:03:37;;;;;;;9.45;3.63;;;5.70;99.90;;;;;;5059782;28;20029;-71
2024/02/13 09:06:04;;;;;;;10.88;3.10;;;5.80;99.90;;;;;;5065392;28;20529;-73
2024/02/13 09:08:34;;;;;;;6.18;2.05;;;5.90;99.90;;;;;;5061308;28;20040;-70
2024/02/13 09:11:00;;;;;;;6.38;1.55;;;6.10;99.90;;;;;;5042311;28;20059;-71
2024/02/13 09:13:28;;;;;;;9.82;2.53;;;6.20;99.90;;;;;;5068052;28;20491;-72
2024/02/13 09:15:55;;;;;;;12.10;2.67;;;6.20;99.90;;;;;;5063187;28;20033;-72
2024/02/13 09:18:21;;;;;;;5.20;2.05;;;6.40;99.90;;;;;;5062563;28;20078;-72
2024/02/13 09:20:47;;;;;;;5.43;1.67;;;6.50;99.90;;;;;;5060455;28;20099;-73
2024/02/13 09:23:14;;;;;;;6.43;2.40;;;6.50;99.90;;;;;;5063451;28;20477;-72
2024/02/13 09:25:40;;;;;;;6.55;2.03;;;6.50;99.90;;;;;;5064578;28;20074;-73
2024/02/13 09:28:06;;;;;;;4.72;2.10;;;6.50;99.90;;;;;;5041544;28;20041;-73
2024/02/13 09:30:33;;;;;;;8.93;1.98;;;6.60;99.90;;;;;;5044776;28;20109;-73
2024/02/13 09:32:59;;;;;;;5.82;1.83;;;6.50;99.90;;;;;;5066482;28;20087;-71
2024/02/13 09:35:24;;;;;;;7.60;2.38;;;6.60;99.90;;;;;;5063474;28;20509;-72
2024/02/13 09:37:50;;;;;;;6.75;2.00;;;6.60;99.90;;;;;;5063684;28;20067;-72
2024/02/13 09:40:16;;;;;;;6.55;1.48;;;6.50;99.90;;;;;;5060607;28;20032;-72
2024/02/13 09:42:43;;;;;;;6.78;2.25;;;6.50;99.90;;;;;;5066439;28;20106;-72
2024/02/13 09:45:10;;;;;;;7.57;2.00;;;6.60;99.90;;;;;;5062390;28;20083;-74
2024/02/13 09:47:37;;;;;;;6.50;1.80;;;6.60;99.90;;;;;;5066681;28;20118;-73
2024/02/13 09:50:11;;;;;;;9.18;2.63;;;6.70;99.90;;;;;;5029833;28;20096;-72
2024/02/13 09:52:41;;;;;;;5.40;1.40;;;6.80;99.90;;;;;;5031979;28;20132;-72
2024/02/13 09:55:10;;;;;;;9.40;1.85;;;6.80;99.90;;;;;;5030020;28;20029;-77
2024/02/13 09:57:40;;;;;;;3.70;1.30;;;6.80;99.90;;;;;;5031363;28;20034;-73
2024/02/13 10:00:11;;;;;;;3.63;1.42;;;6.90;99.90;;;;;;5031673;28;20030;-72
2024/02/13 10:02:40;;;;;;;7.15;2.50;;;7.00;99.90;;;;;;5029774;28;20057;-73
2024/02/13 10:05:09;;;;;;;7.88;1.40;;;7.10;99.90;;;;;;5041223;28;20029;-75
2024/02/13 10:07:37;;;;;;;3.97;1.80;;;7.20;99.90;;;;;;5039626;28;20448;-73
2024/02/13 10:10:04;;;;;;;2.85;1.23;;;7.30;99.90;;;;;;5030752;28;20029;-72
2024/02/13 10:12:30;;;;;;;7.45;1.40;;;7.30;99.90;;;;;;5037483;28;20025;-73
2024/02/13 10:14:58;;;;;;;3.97;1.38;;;7.40;99.90;;;;;;5034786;28;20611;-71
2024/02/13 10:17:23;;;;;;;6.63;2.28;;;7.30;99.90;;;;;;5037481;28;20041;-72
2024/02/13 10:19:49;;;;;;;6.57;2.13;;;7.40;99.90;;;;;;5029181;28;20141;-72
2024/02/13 10:22:16;;;;;;;5.00;1.30;;;7.40;99.90;;;;;;5034493;28;20048;-72
2024/02/13 10:24:47;;;;;;;4.05;1.70;;;7.40;99.90;;;;;;5035761;28;20081;-72
2024/02/13 10:27:14;;;;;;;6.40;1.50;;;7.50;99.90;;;;;;5040278;28;20188;-74
2024/02/13 10:29:43;;;;;;;4.30;1.40;;;7.60;99.90;;;;;;5033673;28;20409;-72
2024/02/13 10:32:08;;;;;;;7.43;2.13;;;7.60;99.90;;;;;;5034048;28;20090;-72
2024/02/13 10:34:37;;;;;;;7.88;1.75;;;7.70;99.90;;;;;;5034768;28;20116;-72
2024/02/13 10:37:10;;;;;;;5.07;1.20;;;7.70;99.90;;;;;;5030387;28;20049;-72
2024/02/13 10:39:40;;;;;;;8.55;2.08;;;7.80;99.90;;;;;;5030329;28;20036;-73
2024/02/13 10:42:10;;;;;;;4.68;0.98;;;7.80;99.90;;;;;;5034461;28;20021;-72
2024/02/13 10:44:43;;;;;;;7.78;2.00;;;7.90;99.90;;;;;;5033301;28;20128;-73
2024/02/13 10:47:12;;;;;;;5.57;1.23;;;7.90;99.90;;;;;;5029840;28;20437;-72
2024/02/13 10:49:58;;;;;;;7.63;1.67;;;7.90;99.90;;;;;;5030820;28;20174;-70
2024/02/13 10:52:26;;;;;;;10.82;1.88;;;7.90;99.90;;;;;;5040648;28;20041;-72
2024/02/13 10:54:52;;;;;;;6.95;1.45;;;7.90;99.90;;;;;;5032521;28;20033;-72
2024/02/13 10:57:17;;;;;;;4.75;1.45;;;7.90;99.90;;;;;;5032929;28;20033;-72
2024/02/13 10:59:47;;;;;;;5.80;1.42;;;8.10;99.90;;;;;;5036206;28;20421;-73
2024/02/13 11:02:18;;;;;;;2.97;1.08;;;8.10;99.90;;;;;;5034474;28;20065;-73
2024/02/13 11:04:46;;;;;;;8.60;1.20;;;8.20;99.90;;;;;;5033089;28;20697;-73
2024/02/13 11:07:13;;;;;;;6.00;1.73;;;8.30;99.90;;;;;;5030819;28;20398;-72
2024/02/13 11:09:39;;;;;;;4.82;1.67;;;8.30;99.90;;;;;;5034115;28;20111;-72
2024/02/13 11:12:07;;;;;;;3.67;1.05;;;8.40;99.90;;;;;;5031970;28;20041;-71
2024/02/13 11:14:32;;;;;;;5.93;1.15;;;8.50;99.90;;;;;;5032935;28;20128;-71
2024/02/13 11:17:09;;;;;;;8.48;1.05;;;8.50;99.90;;;;;;5032558;28;20101;-71
2024/02/13 11:19:42;;;;;;;7.57;1.40;;;8.50;99.90;;;;;;5037088;28;20410;-72
2024/02/13 11:22:12;;;;;;;8.07;1.25;;;8.60;99.90;;;;;;5032193;28;20033;-73
2024/02/13 11:24:48;;;;;;;3.17;0.95;;;8.70;99.90;;;;;;5032742;28;20033;-74
2024/02/13 11:27:17;;;;;;;2.88;1.13;;;8.70;99.90;;;;;;5035524;28;20038;-72
2024/02/13 11:29:53;;;;;;;4.13;1.25;;;8.70;99.90;;;;;;5034046;28;20040;-71
2024/02/13 11:32:28;;;;;;;3.33;1.25;;;8.70;99.90;;;;;;5033388;28;20042;-72
2024/02/13 11:34:57;;;;;;;3.08;1.00;;;8.80;99.90;;;;;;5035219;28;20037;-73
2024/02/13 11:37:27;;;;;;;4.78;1.08;;;8.80;99.90;;;;;;5036368;28;20122;-73
2024/02/13 11:39:53;;;;;;;8.50;1.10;;;8.90;99.90;;;;;;5034893;28;20032;-71
2024/02/13 11:42:19;;;;;;;6.72;1.70;;;8.90;99.90;;;;;;5037646;28;20112;-71
2024/02/13 11:44:48;;;;;;;4.85;1.00;;;9.00;99.90;;;;;;5037048;28;20467;-72
2024/02/13 11:47:19;;;;;;;3.90;1.00;;;9.10;99.90;;;;;;5034317;28;20078;-73
2024/02/13 11:49:52;;;;;;;2.22;1.10;;;9.20;99.90;;;;;;5032098;28;20442;-72
2024/02/13 11:52:19;;;;;;;6.10;1.63;;;9.30;99.90;;;;;;5033839;28;20502;-73
2024/02/13 11:54:46;;;;;;;3.70;1.15;;;9.30;99.90;;;;;;5036700;28;20406;-73
2024/02/13 11:57:13;;;;;;;4.68;1.25;;;9.40;99.90;;;;;;5032810;28;20044;-72
2024/02/13 11:59:39;;;;;;;4.20;1.17;;;9.40;99.90;;;;;;5037387;28;20032;-73
2024/02/13 12:02:14;;;;;;;4.60;1.17;;;9.40;99.90;;;;;;5039934;28;20068;-72
2024/02/13 12:04:43;;;;;;;7.35;1.13;;;9.30;99.90;;;;;;5033878;28;20029;-71
2024/02/13 12:07:11;;;;;;;4.60;1.52;;;9.40;99.90;;;;;;5055228;28;20050;-73
2024/02/13 12:09:40;;;;;;;2.95;0.63;;;9.40;99.90;;;;;;5043273;28;20093;-71
2024/02/13 12:12:09;;;;;;;2.38;1.10;;;9.50;99.90;;;;;;5067846;28;20025;-73
2024/02/13 12:14:36;;;;;;;9.60;1.33;;;9.50;99.90;;;;;;5048378;28;20037;-72
2024/02/13 12:17:07;;;;;;;5.57;1.27;;;9.60;99.90;;;;;;5060437;28;20089;-74
2024/02/13 12:19:40;;;;;;;6.05;1.27;;;9.70;99.90;;;;;;5049124;28;20988;-72
2024/02/13 12:22:08;;;;;;;9.70;1.42;;;9.70;99.90;;;;;;5061105;28;20033;-73
2024/02/13 12:24:40;;;;;;;3.58;0.70;;;9.80;99.90;;;;;;5066764;28;20039;-73
2024/02/13 12:27:10;;;;;;;3.35;0.57;;;9.80;99.90;;;;;;5065651;28;20098;-72
2024/02/13 12:29:42;;;;;;;4.53;0.60;;;9.80;99.90;;;;;;5042582;28;20037;-72
2024/02/13 12:32:09;;;;;;;4.28;0.80;;;9.90;99.90;;;;;;5067613;28;20035;-73
2024/02/13 12:34:36;;;;;;;7.93;0.88;;;9.90;99.90;;;;;;5064673;28;20388;-73
2024/02/13 12:37:05;;;;;;;3.30;0.63;;;10.00;99.90;;;;;;5045838;28;20397;-72
2024/02/13 12:39:31;;;;;;;1.60;0.45;;;10.00;99.90;;;;;;5069205;28;20082;-73
2024/02/13 12:41:59;;;;;;;6.03;1.00;;;10.00;99.90;;;;;;5061244;28;20032;-71
2024/02/13 12:44:24;;;;;;;7.32;1.65;;;10.00;99.90;;;;;;5060737;28;20056;-72
2024/02/13 12:46:53;;;;;;;5.78;1.05;;;10.00;99.90;;;;;;5049000;28;20529;-75
2024/02/13 12:49:21;;;;;;;4.90;0.90;;;9.90;99.90;;;;;;5061873;28;20494;-73
2024/02/13 12:51:47;;;;;;;2.22;0.82;;;9.90;99.90;;;;;;5061137;28;20115;-72
2024/02/13 12:54:12;;;;;;;3.70;0.80;;;9.90;99.90;;;;;;5061505;28;20123;-72
2024/02/13 12:56:40;;;;;;;6.70;0.80;;;9.90;99.90;;;;;;5061164;28;20032;-72